createdAt,value
2018-12-27T00:01:42.643Z,4.10
2018-12-27T00:04:12.008Z,4.10
2018-12-27T00:06:41.192Z,4.10
2018-12-27T00:09:10.417Z,4.20
2018-12-27T00:11:39.581Z,4.20
2018-12-27T00:14:10.245Z,4.10
2018-12-27T00:16:39.382Z,4.10
2018-12-27T00:19:11.630Z,4.10
2018-12-27T00:21:40.558Z,4.10
2018-12-27T00:24:09.703Z,4.10
2018-12-27T00:26:38.620Z,4.10
2018-12-27T00:29:07.825Z,4.10
2018-12-27T00:31:37.021Z,4.10
2018-12-27T00:34:06.555Z,4.10
2018-12-27T00:36:38.571Z,4.00
2018-12-27T00:39:09.541Z,4.00
2018-12-27T00:41:38.862Z,4.00
2018-12-27T00:44:09.474Z,4.00
2018-12-27T00:46:38.825Z,4.00
2018-12-27T00:49:10.276Z,4.00
2018-12-27T00:51:42.538Z,4.00
2018-12-27T00:54:11.686Z,4.00
2018-12-27T00:56:41.570Z,4.00
2018-12-27T00:59:10.659Z,3.90
2018-12-27T01:01:39.785Z,4.00
2018-12-27T01:04:08.899Z,3.90
2018-12-27T01:06:38.074Z,4.00
2018-12-27T01:09:07.845Z,4.00
2018-12-27T01:11:38.286Z,3.90
2018-12-27T01:14:07.352Z,3.90
2018-12-27T01:16:36.875Z,3.90
2018-12-27T01:19:09.739Z,3.80
2018-12-27T01:21:42.150Z,3.80
2018-12-27T01:24:11.640Z,3.80
2018-12-27T01:26:43.793Z,3.90
2018-12-27T01:29:14.091Z,3.90
2018-12-27T01:31:50.464Z,3.90
2018-12-27T01:34:14.354Z,3.90
2018-12-27T01:36:46.794Z,3.90
2018-12-27T01:39:15.907Z,3.90
2018-12-27T01:41:45.259Z,3.90
2018-12-27T01:44:20.992Z,3.90
2018-12-27T01:46:50.372Z,3.90
2018-12-27T01:49:22.977Z,4.00
2018-12-27T01:51:52.054Z,3.90
2018-12-27T01:54:21.180Z,4.00
2018-12-27T01:56:53.364Z,4.00
2018-12-27T01:59:23.252Z,4.00
2018-12-27T02:01:52.977Z,4.00
2018-12-27T02:04:22.085Z,4.00
2018-12-27T02:06:54.100Z,4.00
2018-12-27T02:09:23.528Z,4.00
2018-12-27T02:11:52.626Z,3.90
2018-12-27T02:14:28.927Z,4.00
2018-12-27T02:16:58.312Z,4.00
2018-12-27T02:19:27.442Z,4.00
2018-12-27T02:21:56.864Z,3.90
2018-12-27T02:24:29.243Z,4.00
2018-12-27T02:26:58.321Z,4.00
2018-12-27T02:29:27.443Z,4.00
2018-12-27T02:31:56.514Z,4.00
2018-12-27T02:34:32.272Z,4.00
2018-12-27T02:37:01.361Z,4.00
2018-12-27T02:39:30.467Z,4.00
2018-12-27T02:41:59.545Z,3.90
2018-12-27T02:44:28.660Z,4.00
2018-12-27T02:46:57.967Z,3.90
2018-12-27T02:49:27.058Z,3.90
2018-12-27T02:51:56.918Z,3.90
2018-12-27T02:54:26.388Z,3.90
2018-12-27T02:56:56.308Z,3.90
2018-12-27T02:59:29.373Z,3.90
2018-12-27T03:01:58.488Z,3.90
2018-12-27T03:04:27.583Z,3.90
2018-12-27T03:06:57.018Z,3.90
2018-12-27T03:09:26.152Z,3.90
2018-12-27T03:11:56.146Z,4.00
2018-12-27T03:14:25.246Z,3.90
2018-12-27T03:16:54.312Z,4.00
2018-12-27T03:19:23.967Z,3.90
2018-12-27T03:21:53.896Z,3.90
2018-12-27T03:24:24.448Z,4.00
2018-12-27T03:26:53.528Z,4.00
2018-12-27T03:29:22.667Z,4.00
2018-12-27T03:32:03.429Z,4.00
2018-12-27T03:34:32.590Z,3.90
2018-12-27T03:37:01.638Z,3.90
2018-12-27T03:39:30.730Z,3.90
2018-12-27T03:42:00.575Z,3.80
2018-12-27T03:44:29.869Z,3.80
2018-12-27T03:46:58.981Z,3.80
2018-12-27T03:49:30.651Z,3.80
2018-12-27T03:51:59.765Z,3.80
2018-12-27T03:54:28.849Z,3.80
2018-12-27T03:56:58.363Z,3.70
2018-12-27T03:59:27.448Z,3.70
2018-12-27T04:01:56.616Z,3.70
2018-12-27T04:04:28.122Z,3.70
2018-12-27T04:07:05.029Z,3.60
2018-12-27T04:09:34.489Z,3.60
2018-12-27T04:12:04.490Z,3.60
2018-12-27T04:14:33.597Z,3.60
2018-12-27T04:17:05.593Z,3.50
2018-12-27T04:19:37.514Z,3.50
2018-12-27T04:22:07.881Z,3.40
2018-12-27T04:24:37.100Z,3.40
2018-12-27T04:27:06.008Z,3.40
2018-12-27T04:29:35.733Z,3.40
2018-12-27T04:32:17.950Z,3.30
2018-12-27T04:34:46.937Z,3.30
2018-12-27T04:37:16.207Z,3.30
2018-12-27T04:39:45.127Z,3.30
2018-12-27T04:42:15.339Z,3.20
2018-12-27T04:44:45.600Z,3.20
2018-12-27T04:47:14.740Z,3.20
2018-12-27T04:49:46.300Z,3.20
2018-12-27T04:52:15.193Z,3.10
2018-12-27T04:54:44.110Z,3.10
2018-12-27T04:57:13.814Z,3.10
2018-12-27T04:59:55.018Z,3.00
2018-12-27T05:02:24.342Z,3.00
2018-12-27T05:04:53.974Z,3.00
2018-12-27T05:07:22.904Z,3.00
2018-12-27T05:09:52.071Z,2.90
2018-12-27T05:12:21.261Z,2.90
2018-12-27T05:14:50.537Z,2.90
2018-12-27T05:17:19.894Z,2.90
2018-12-27T05:19:51.170Z,2.90
2018-12-27T05:22:21.276Z,2.90
2018-12-27T05:24:50.150Z,2.90
2018-12-27T05:27:22.844Z,2.90
2018-12-27T05:29:53.306Z,2.80
2018-12-27T05:32:24.977Z,2.90
2018-12-27T05:34:53.895Z,2.90
2018-12-27T05:37:23.159Z,2.80
2018-12-27T05:39:52.009Z,2.90
2018-12-27T05:42:22.048Z,2.90
2018-12-27T05:44:51.194Z,2.90
2018-12-27T05:47:20.528Z,2.90
2018-12-27T05:49:49.697Z,2.90
2018-12-27T05:52:18.733Z,2.90
2018-12-27T05:54:50.748Z,2.90
2018-12-27T05:57:19.670Z,2.80
2018-12-27T05:59:48.954Z,2.80
2018-12-27T06:02:17.868Z,2.80
2018-12-27T06:04:50.019Z,2.80
2018-12-27T06:07:18.837Z,2.80
2018-12-27T06:12:22.746Z,2.80
2018-12-27T06:14:51.647Z,2.90
2018-12-27T06:17:20.603Z,2.80
2018-12-27T06:19:49.807Z,2.80
2018-12-27T06:22:18.650Z,2.80
2018-12-27T06:24:47.786Z,2.80
2018-12-27T06:27:16.717Z,2.80
2018-12-27T06:29:45.727Z,2.80
2018-12-27T06:32:14.874Z,2.80
2018-12-27T06:34:43.791Z,2.80
2018-12-27T06:37:13.498Z,2.80
2018-12-27T06:39:42.448Z,2.80
2018-12-27T06:42:11.297Z,2.80
2018-12-27T06:44:43.816Z,2.80
2018-12-27T06:47:12.744Z,2.70
2018-12-27T06:49:41.910Z,2.70
2018-12-27T06:52:11.867Z,2.70
2018-12-27T06:54:41.134Z,2.70
2018-12-27T06:57:13.671Z,2.70
2018-12-27T06:59:42.587Z,2.70
2018-12-27T07:02:15.117Z,2.70
2018-12-27T07:04:48.892Z,2.70
2018-12-27T07:07:14.672Z,2.70
2018-12-27T07:09:44.478Z,2.70
2018-12-27T07:12:13.541Z,2.70
2018-12-27T07:14:42.473Z,2.70
2018-12-27T07:17:11.524Z,2.70
2018-12-27T07:19:43.887Z,2.70
2018-12-27T07:22:13.077Z,2.70
2018-12-27T07:24:42.339Z,2.70
2018-12-27T07:27:11.659Z,2.70
2018-12-27T07:29:44.013Z,2.70
2018-12-27T07:32:13.271Z,2.70
2018-12-27T07:34:42.203Z,2.70
2018-12-27T07:37:11.210Z,2.70
2018-12-27T07:39:40.221Z,2.70
2018-12-27T07:42:09.519Z,2.70
2018-12-27T07:44:38.362Z,2.70
2018-12-27T07:47:09.282Z,2.70
2018-12-27T07:49:38.268Z,2.60
2018-12-27T07:52:07.269Z,2.60
2018-12-27T07:54:36.202Z,2.60
2018-12-27T07:57:05.209Z,2.60
2018-12-27T07:59:37.189Z,2.50
2018-12-27T08:02:09.530Z,2.50
2018-12-27T08:04:42.049Z,2.50
2018-12-27T08:07:12.297Z,2.40
2018-12-27T08:09:41.306Z,2.40
2018-12-27T08:12:10.371Z,2.40
2018-12-27T08:14:42.402Z,2.40
2018-12-27T08:17:11.403Z,2.40
2018-12-27T08:22:17.975Z,2.30
2018-12-27T08:24:49.287Z,2.30
2018-12-27T08:27:19.242Z,2.40
2018-12-27T08:29:50.586Z,2.40
2018-12-27T08:32:19.603Z,2.40
2018-12-27T08:34:48.804Z,2.40
2018-12-27T08:37:17.659Z,2.50
2018-12-27T08:39:46.591Z,2.50
2018-12-27T08:42:15.550Z,2.50
2018-12-27T08:44:44.882Z,2.50
2018-12-27T08:47:13.798Z,2.50
2018-12-27T08:49:42.637Z,2.50
2018-12-27T08:52:11.899Z,2.50
2018-12-27T08:54:40.834Z,2.50
2018-12-27T08:57:12.083Z,2.50
2018-12-27T08:59:41.051Z,2.50
2018-12-27T09:02:10.816Z,2.50
2018-12-27T09:04:39.834Z,2.50
2018-12-27T09:07:09.903Z,2.50
2018-12-27T09:09:39.131Z,2.50
2018-12-27T09:12:08.768Z,2.50
2018-12-27T09:14:38.104Z,2.50
2018-12-27T09:17:07.024Z,2.50
2018-12-27T09:19:36.287Z,2.50
2018-12-27T09:22:07.242Z,2.60
2018-12-27T09:24:36.218Z,2.60
2018-12-27T09:27:05.158Z,2.60
2018-12-27T09:29:34.551Z,2.60
2018-12-27T09:32:03.945Z,2.70
2018-12-27T09:34:33.255Z,2.80
2018-12-27T09:37:02.780Z,2.80
2018-12-27T09:39:31.824Z,2.90
2018-12-27T09:42:01.058Z,3.00
2018-12-27T09:44:30.027Z,3.10
2018-12-27T09:47:00.590Z,3.10
2018-12-27T09:49:29.568Z,3.20
2018-12-27T09:52:32.118Z,3.30
2018-12-27T09:55:04.584Z,3.40
2018-12-27T09:57:33.534Z,3.50
2018-12-27T10:00:03.671Z,3.50
2018-12-27T10:02:32.885Z,3.60
2018-12-27T10:05:01.715Z,3.70
2018-12-27T10:07:36.652Z,3.80
2018-12-27T10:10:18.198Z,3.80
2018-12-27T10:12:47.368Z,3.90
2018-12-27T10:15:16.507Z,3.90
2018-12-27T10:17:45.743Z,4.00
2018-12-27T10:20:14.834Z,4.00
2018-12-27T10:22:47.089Z,4.10
2018-12-27T10:25:16.051Z,4.10
2018-12-27T10:27:45.120Z,4.10
2018-12-27T10:30:14.138Z,4.20
2018-12-27T10:32:43.919Z,4.20
2018-12-27T10:35:13.529Z,4.30
2018-12-27T10:37:48.362Z,4.30
2018-12-27T10:40:17.469Z,4.30
2018-12-27T10:42:48.878Z,4.40
2018-12-27T10:45:17.921Z,4.40
2018-12-27T10:47:46.904Z,4.40
2018-12-27T10:50:16.635Z,4.50
2018-12-27T10:52:45.801Z,4.50
2018-12-27T10:55:18.951Z,4.50
2018-12-27T10:57:47.969Z,4.60
2018-12-27T11:00:28.895Z,4.60
2018-12-27T11:02:57.827Z,4.60
2018-12-27T11:05:27.217Z,4.60
2018-12-27T11:07:56.201Z,4.60
2018-12-27T11:10:25.556Z,4.60
2018-12-27T11:12:54.559Z,4.60
2018-12-27T11:15:23.547Z,4.60
2018-12-27T11:17:52.438Z,4.60
2018-12-27T11:20:21.486Z,4.60
2018-12-27T11:22:50.624Z,4.70
2018-12-27T11:25:23.494Z,4.70
2018-12-27T11:27:52.506Z,4.70
2018-12-27T11:30:21.543Z,4.70
2018-12-27T11:32:52.568Z,4.70
2018-12-27T11:35:22.038Z,4.80
2018-12-27T11:37:51.093Z,4.80
2018-12-27T11:40:21.421Z,4.90
2018-12-27T11:42:51.147Z,5.00
2018-12-27T11:45:21.426Z,5.00
2018-12-27T11:47:51.547Z,5.10
2018-12-27T11:50:20.469Z,5.10
2018-12-27T11:52:51.130Z,5.20
2018-12-27T11:55:20.157Z,5.30
2018-12-27T11:57:50.567Z,5.40
2018-12-27T12:00:19.569Z,5.40
2018-12-27T12:02:51.731Z,5.40
2018-12-27T12:05:21.269Z,5.50
2018-12-27T12:07:50.275Z,5.60
2018-12-27T12:10:19.232Z,5.60
2018-12-27T12:12:48.155Z,5.70
2018-12-27T12:15:17.502Z,5.70
2018-12-27T12:17:46.660Z,5.80
2018-12-27T12:20:15.956Z,5.80
2018-12-27T12:22:44.838Z,5.80
2018-12-27T12:25:14.375Z,5.90
2018-12-27T12:27:43.307Z,5.90
2018-12-27T12:30:14.132Z,5.90
2018-12-27T12:32:43.119Z,6.00
2018-12-27T12:35:12.356Z,6.00
2018-12-27T12:37:41.924Z,6.00
2018-12-27T12:40:10.874Z,6.00
2018-12-27T12:42:39.835Z,6.10
2018-12-27T12:45:08.833Z,6.00
2018-12-27T12:47:38.830Z,6.00
2018-12-27T12:50:08.895Z,6.00
2018-12-27T12:52:39.250Z,6.00
2018-12-27T12:55:08.433Z,6.00
2018-12-27T12:57:39.469Z,6.10
2018-12-27T13:00:11.092Z,6.10
2018-12-27T13:02:40.673Z,6.10
2018-12-27T13:05:10.448Z,6.10
2018-12-27T13:07:39.373Z,6.10
2018-12-27T13:10:08.611Z,6.10
2018-12-27T13:12:37.491Z,6.10
2018-12-27T13:15:06.932Z,6.10
2018-12-27T13:17:37.194Z,6.10
2018-12-27T13:20:06.506Z,6.10
2018-12-27T13:22:35.572Z,6.10
2018-12-27T13:25:04.946Z,6.10
2018-12-27T13:27:33.941Z,6.20
2018-12-27T13:30:05.865Z,6.20
2018-12-27T13:32:35.343Z,6.30
2018-12-27T13:35:04.950Z,6.30
2018-12-27T13:37:33.911Z,6.30
2018-12-27T13:40:05.966Z,6.30
2018-12-27T13:42:34.892Z,6.30
2018-12-27T13:45:04.096Z,6.30
2018-12-27T13:47:33.123Z,6.30
2018-12-27T13:50:06.140Z,6.30
2018-12-27T13:52:35.443Z,6.30
2018-12-27T13:55:04.888Z,6.30
2018-12-27T13:57:35.664Z,6.30
2018-12-27T14:00:07.944Z,6.30
2018-12-27T14:02:38.617Z,6.30
2018-12-27T14:05:08.056Z,6.30
2018-12-27T14:07:40.150Z,6.20
2018-12-27T14:10:09.171Z,6.20
2018-12-27T14:12:38.431Z,6.20
2018-12-27T14:15:08.068Z,6.10
2018-12-27T14:17:37.754Z,6.10
2018-12-27T14:20:10.657Z,6.00
2018-12-27T14:22:39.598Z,6.00
2018-12-27T14:25:08.849Z,5.90
2018-12-27T14:27:41.198Z,5.80
2018-12-27T14:30:10.603Z,5.80
2018-12-27T14:32:39.887Z,5.80
2018-12-27T14:35:11.928Z,5.70
2018-12-27T14:37:41.155Z,5.70
2018-12-27T14:40:10.310Z,5.60
2018-12-27T14:42:41.334Z,5.60
2018-12-27T14:45:11.257Z,5.60
2018-12-27T14:47:40.572Z,5.50
2018-12-27T14:50:12.318Z,5.50
2018-12-27T14:52:41.642Z,5.40
2018-12-27T14:55:11.307Z,5.40
2018-12-27T14:57:42.606Z,5.30
2018-12-27T15:00:12.056Z,5.30
2018-12-27T15:02:41.263Z,5.30
2018-12-27T15:05:16.398Z,5.20
2018-12-27T15:07:45.560Z,5.20
2018-12-27T15:10:14.543Z,5.10
2018-12-27T15:12:43.564Z,5.10
2018-12-27T15:15:13.263Z,5.00
2018-12-27T15:17:42.183Z,5.00
2018-12-27T15:20:13.448Z,4.90
2018-12-27T15:22:45.758Z,4.90
2018-12-27T15:25:14.699Z,4.80
2018-12-27T15:27:43.943Z,4.80
2018-12-27T15:30:12.983Z,4.80
2018-12-27T15:32:45.175Z,4.70
2018-12-27T15:35:14.110Z,4.70
2018-12-27T15:37:49.154Z,4.70
2018-12-27T15:40:18.045Z,4.60
2018-12-27T15:42:47.390Z,4.60
2018-12-27T15:45:17.508Z,4.60
2018-12-27T15:47:47.706Z,4.50
2018-12-27T15:50:19.159Z,4.50
2018-12-27T15:52:48.563Z,4.50
2018-12-27T15:55:17.502Z,4.40
2018-12-27T15:57:46.410Z,4.40
2018-12-27T16:00:15.287Z,4.40
2018-12-27T16:02:44.798Z,4.40
2018-12-27T16:05:13.913Z,4.30
2018-12-27T16:07:45.801Z,4.30
2018-12-27T16:10:18.004Z,4.20
2018-12-27T16:12:54.300Z,4.20
2018-12-27T16:15:23.261Z,4.20
2018-12-27T16:17:52.495Z,4.20
2018-12-27T16:20:24.573Z,4.20
2018-12-27T16:22:56.621Z,4.10
2018-12-27T16:25:25.519Z,4.10
2018-12-27T16:27:54.833Z,4.10
2018-12-27T16:30:24.327Z,4.10
2018-12-27T16:32:53.396Z,4.00
2018-12-27T16:35:22.795Z,4.00
2018-12-27T16:37:51.807Z,3.90
2018-12-27T16:40:27.289Z,3.90
2018-12-27T16:42:56.374Z,3.90
2018-12-27T16:45:25.257Z,3.90
2018-12-27T16:47:54.247Z,3.80
2018-12-27T16:50:23.364Z,3.80
2018-12-27T16:52:53.638Z,3.70
2018-12-27T16:55:24.444Z,3.70
2018-12-27T16:57:53.570Z,3.70
2018-12-27T17:00:22.713Z,3.60
2018-12-27T17:02:51.793Z,3.60
2018-12-27T17:05:23.998Z,3.60
2018-12-27T17:07:53.592Z,3.50
2018-12-27T17:10:22.584Z,3.50
2018-12-27T17:12:51.573Z,3.50
2018-12-27T17:15:24.736Z,3.40
2018-12-27T17:17:56.802Z,3.40
2018-12-27T17:20:25.718Z,3.40
2018-12-27T17:22:55.026Z,3.40
2018-12-27T17:25:23.979Z,3.40
2018-12-27T17:27:53.757Z,3.40
2018-12-27T17:30:24.378Z,3.40
2018-12-27T17:32:53.299Z,3.30
2018-12-27T17:35:22.265Z,3.30
2018-12-27T17:37:52.382Z,3.40
2018-12-27T17:40:23.392Z,3.30
2018-12-27T17:42:53.795Z,3.30
2018-12-27T17:45:26.520Z,3.30
2018-12-27T17:47:56.550Z,3.30
2018-12-27T17:50:25.669Z,3.30
2018-12-27T17:52:56.703Z,3.30
2018-12-27T17:55:25.903Z,3.30
2018-12-27T17:57:56.884Z,3.30
2018-12-27T18:00:25.851Z,3.30
2018-12-27T18:02:55.523Z,3.20
2018-12-27T18:05:25.324Z,3.20
2018-12-27T18:08:13.163Z,3.10
2018-12-27T18:10:44.034Z,3.10
2018-12-27T18:13:13.900Z,3.00
2018-12-27T18:15:42.975Z,3.00
2018-12-27T18:18:12.014Z,3.00
2018-12-27T18:20:48.652Z,3.00
2018-12-27T18:23:17.673Z,2.90
2018-12-27T18:25:46.620Z,2.90
2018-12-27T18:28:16.212Z,2.90
2018-12-27T18:30:45.889Z,2.90
2018-12-27T18:33:15.063Z,2.90
2018-12-27T18:35:55.705Z,2.90
2018-12-27T18:38:28.693Z,2.90
2018-12-27T18:40:58.785Z,2.90
2018-12-27T18:43:27.875Z,2.90
2018-12-27T18:45:57.254Z,2.90
2018-12-27T18:48:26.937Z,2.90
2018-12-27T18:50:55.949Z,3.00
2018-12-27T18:56:05.676Z,3.00
2018-12-27T18:58:35.011Z,3.00
2018-12-27T19:01:04.783Z,2.90
2018-12-27T19:03:34.579Z,3.00
2018-12-27T19:06:04.043Z,3.00
2018-12-27T19:08:35.116Z,3.00
2018-12-27T19:11:39.830Z,2.90
2018-12-27T19:14:11.321Z,3.00
2018-12-27T19:16:41.635Z,2.90
2018-12-27T19:19:13.571Z,2.90
2018-12-27T19:22:06.756Z,2.90
2018-12-27T19:24:36.301Z,2.90
2018-12-27T19:27:05.295Z,2.80
2018-12-27T19:29:34.318Z,2.80
2018-12-27T19:32:04.886Z,2.80
2018-12-27T19:34:36.274Z,2.80
2018-12-27T19:37:06.432Z,2.80
2018-12-27T19:39:37.263Z,2.70
2018-12-27T19:42:09.415Z,2.70
2018-12-27T19:44:38.383Z,2.60
2018-12-27T19:47:09.078Z,2.50
2018-12-27T19:49:38.161Z,2.50
2018-12-27T19:52:08.087Z,2.40
2018-12-27T19:54:37.850Z,2.30
2018-12-27T19:57:07.242Z,2.30
2018-12-27T19:59:36.514Z,2.20
2018-12-27T20:02:06.072Z,2.10
2018-12-27T20:04:35.129Z,2.10
2018-12-27T20:07:16.633Z,2.00
2018-12-27T20:09:45.700Z,2.00
2018-12-27T20:12:15.282Z,1.90
2018-12-27T20:14:45.055Z,1.80
2018-12-27T20:17:15.685Z,1.80
2018-12-27T20:19:44.710Z,1.70
2018-12-27T20:22:13.771Z,1.70
2018-12-27T20:24:47.022Z,1.60
2018-12-27T20:27:15.984Z,1.60
2018-12-27T20:29:47.010Z,1.60
2018-12-27T20:32:16.006Z,1.60
2018-12-27T20:34:44.931Z,1.60
2018-12-27T20:37:15.824Z,1.50
2018-12-27T20:39:44.753Z,1.50
2018-12-27T20:42:13.782Z,1.50
2018-12-27T20:44:46.156Z,1.50
2018-12-27T20:47:15.513Z,1.40
2018-12-27T20:49:44.462Z,1.40
2018-12-27T20:52:13.445Z,1.40
2018-12-27T20:54:42.698Z,1.40
2018-12-27T20:57:11.651Z,1.30
2018-12-27T20:59:42.935Z,1.30
2018-12-27T21:02:12.668Z,1.30
2018-12-27T21:04:43.985Z,1.30
2018-12-27T21:07:12.928Z,1.20
2018-12-27T21:09:42.490Z,1.20
2018-12-27T21:12:11.543Z,1.20
2018-12-27T21:14:41.060Z,1.20
2018-12-27T21:17:11.390Z,1.20
2018-12-27T21:19:40.472Z,1.20
2018-12-27T21:22:09.496Z,1.20
2018-12-27T21:24:39.292Z,1.20
2018-12-27T21:27:08.545Z,1.20
2018-12-27T21:29:37.486Z,1.20
2018-12-27T21:32:06.792Z,1.30
2018-12-27T21:34:39.164Z,1.30
2018-12-27T21:37:14.665Z,1.30
2018-12-27T21:39:45.640Z,1.40
2018-12-27T21:42:15.098Z,1.40
2018-12-27T21:44:44.289Z,1.40
2018-12-27T21:47:19.607Z,1.50
2018-12-27T21:49:54.975Z,1.40
2018-12-27T21:52:54.473Z,1.40
2018-12-27T21:55:23.392Z,1.50
2018-12-27T21:57:52.629Z,1.50
2018-12-27T22:00:24.786Z,1.40
2018-12-27T22:02:53.794Z,1.50
2018-12-27T22:05:26.288Z,1.40
2018-12-27T22:07:55.172Z,1.50
2018-12-27T22:10:24.114Z,1.50
2018-12-27T22:12:53.136Z,1.50
2018-12-27T22:15:22.833Z,1.50
2018-12-27T22:17:52.201Z,1.60
2018-12-27T22:20:21.395Z,1.50
2018-12-27T22:22:50.959Z,1.60
2018-12-27T22:25:19.851Z,1.60
2018-12-27T22:27:48.821Z,1.60
2018-12-27T22:30:17.883Z,1.60
2018-12-27T22:32:49.824Z,1.60
2018-12-27T22:35:19.037Z,1.60
2018-12-27T22:37:48.216Z,1.60
2018-12-27T22:40:17.506Z,1.60
2018-12-27T22:42:46.546Z,1.60
2018-12-27T22:45:15.886Z,1.60
2018-12-27T22:47:44.765Z,1.50
2018-12-27T22:50:13.744Z,1.50
2018-12-27T22:52:44.302Z,1.50
2018-12-27T22:55:19.002Z,1.40
2018-12-27T22:57:48.630Z,1.40
2018-12-27T23:00:21.530Z,1.40
2018-12-27T23:02:50.822Z,1.40
2018-12-27T23:05:19.835Z,1.30
2018-12-27T23:07:48.784Z,1.30
2018-12-27T23:10:19.047Z,1.30
2018-12-27T23:12:47.990Z,1.30
2018-12-27T23:15:17.099Z,1.30
2018-12-27T23:17:45.958Z,1.30
2018-12-27T23:20:15.192Z,1.30
2018-12-27T23:22:47.532Z,1.40
2018-12-27T23:25:16.455Z,1.40
2018-12-27T23:27:46.214Z,1.40
2018-12-27T23:30:17.964Z,1.40
2018-12-27T23:32:46.800Z,1.40
2018-12-27T23:35:16.523Z,1.40
2018-12-27T23:37:47.221Z,1.40
2018-12-27T23:40:16.444Z,1.40
2018-12-27T23:42:48.383Z,1.40
2018-12-27T23:45:17.441Z,1.50
2018-12-27T23:47:46.508Z,1.50
2018-12-27T23:50:15.837Z,1.50
2018-12-27T23:52:44.701Z,1.50
2018-12-27T23:55:13.769Z,1.60
2018-12-27T23:57:43.930Z,1.60
